Time;durP1;ratioP1;P1;durP2;ratioP2;P2;SDS_P1;SDS_P2;PMS_P1;PMS_P2;Temp;Humidity;BMP_temperature;BMP_pressure;BME280_temperature;BME280_humidity;BME280_pressure;Samples;Min_cycle;Max_cycle;Signal;HPM_P1;HPM_P2
2021/12/11 00:00:17;;;;;;;39.05;23.90;;;5.20;99.90;;;;;;5134170;27;20226;-65
2021/12/11 00:02:48;;;;;;;39.15;23.60;;;5.20;99.90;;;;;;5132681;27;20312;-64
2021/12/11 00:05:17;;;;;;;43.45;24.05;;;5.20;99.90;;;;;;5131941;27;20356;-64
2021/12/11 00:07:44;;;;;;;48.17;26.35;;;5.20;99.90;;;;;;5134029;27;20305;-64
2021/12/11 00:10:17;;;;;;;44.60;24.90;;;5.20;99.90;;;;;;5134927;27;20282;-64
2021/12/11 00:12:47;;;;;;;42.05;25.52;;;5.10;99.90;;;;;;5134017;27;20248;-64
2021/12/11 00:15:18;;;;;;;38.35;24.23;;;5.10;99.90;;;;;;5134558;27;20218;-64
2021/12/11 00:17:46;;;;;;;37.53;25.15;;;5.10;99.90;;;;;;5134460;27;20571;-64
2021/12/11 00:20:18;;;;;;;39.78;24.83;;;5.10;99.90;;;;;;5134394;27;20218;-64
2021/12/11 00:22:46;;;;;;;41.33;25.40;;;5.10;99.90;;;;;;5121480;27;20230;-64
2021/12/11 00:25:16;;;;;;;33.80;22.75;;;5.10;99.90;;;;;;5121096;27;20617;-64
2021/12/11 00:27:47;;;;;;;44.92;24.90;;;5.10;99.90;;;;;;5133700;27;20226;-64
2021/12/11 00:30:22;;;;;;;31.65;20.80;;;5.10;99.90;;;;;;5134151;27;20236;-64
2021/12/11 00:32:49;;;;;;;38.35;23.85;;;5.10;99.90;;;;;;5133111;27;20218;-64
2021/12/11 00:35:20;;;;;;;34.42;23.00;;;5.10;99.90;;;;;;5134370;27;20271;-65
2021/12/11 00:37:48;;;;;;;40.65;23.02;;;5.10;99.90;;;;;;5133843;27;20234;-65
2021/12/11 00:40:20;;;;;;;33.65;21.02;;;5.20;99.90;;;;;;5134007;27;20238;-65
2021/12/11 00:42:51;;;;;;;32.60;22.58;;;5.10;99.90;;;;;;5133102;27;20232;-65
2021/12/11 00:45:23;;;;;;;43.67;28.13;;;5.10;99.90;;;;;;5134058;27;20297;-65
2021/12/11 00:47:56;;;;;;;37.40;23.00;;;5.10;99.90;;;;;;5128871;27;20280;-65
2021/12/11 00:50:26;;;;;;;36.78;24.20;;;5.10;99.90;;;;;;5133216;27;20309;-65
2021/12/11 00:52:57;;;;;;;34.25;23.77;;;5.10;99.90;;;;;;5125801;27;20313;-64
2021/12/11 00:55:28;;;;;;;36.92;22.33;;;5.10;99.90;;;;;;5134012;27;20209;-65
2021/12/11 00:58:07;;;;;;;33.40;22.90;;;5.10;99.90;;;;;;5128226;27;20587;-65
2021/12/11 01:00:40;;;;;;;33.67;22.20;;;5.10;99.90;;;;;;5133826;27;20222;-64
2021/12/11 01:03:07;;;;;;;34.67;23.42;;;5.10;99.90;;;;;;5133244;27;20274;-65
2021/12/11 01:05:38;;;;;;;34.25;23.42;;;5.00;99.90;;;;;;5132005;27;20304;-65
2021/12/11 01:08:15;;;;;;;32.55;20.50;;;5.00;99.90;;;;;;5133017;27;20316;-65
2021/12/11 01:10:45;;;;;;;39.15;25.48;;;5.00;99.90;;;;;;5133224;27;20238;-64
2021/12/11 01:13:15;;;;;;;36.03;23.33;;;5.00;99.90;;;;;;5133487;27;20603;-65
2021/12/11 01:15:47;;;;;;;40.10;24.13;;;5.00;99.90;;;;;;5133317;27;20556;-65
2021/12/11 01:18:23;;;;;;;35.10;21.92;;;5.00;99.90;;;;;;5133300;27;20221;-65
2021/12/11 01:20:59;;;;;;;37.20;25.90;;;5.00;99.90;;;;;;5130989;27;20214;-65
2021/12/11 01:23:45;;;;;;;33.78;21.45;;;5.10;99.90;;;;;;5128108;27;20226;-65
2021/12/11 01:26:17;;;;;;;33.00;20.83;;;5.10;99.90;;;;;;5133165;27;20286;-65
2021/12/11 01:28:45;;;;;;;34.28;21.75;;;5.00;99.90;;;;;;5133019;27;20589;-65
2021/12/11 01:31:14;;;;;;;30.42;21.85;;;5.10;99.90;;;;;;5132384;27;20560;-65
2021/12/11 01:33:42;;;;;;;32.42;19.70;;;5.10;99.90;;;;;;5129946;27;20684;-65
2021/12/11 01:36:10;;;;;;;29.73;21.30;;;5.10;99.90;;;;;;5132936;27;20218;-65
2021/12/11 01:38:38;;;;;;;32.20;21.55;;;5.10;99.90;;;;;;5133304;27;20562;-65
2021/12/11 01:41:10;;;;;;;34.85;21.90;;;5.20;99.90;;;;;;5132727;27;20236;-65
2021/12/11 01:43:40;;;;;;;35.60;23.02;;;5.20;99.90;;;;;;5133560;27;20312;-65
2021/12/11 01:46:09;;;;;;;27.92;19.83;;;5.20;99.90;;;;;;5132939;27;20226;-65
2021/12/11 01:48:38;;;;;;;32.92;21.58;;;5.20;99.90;;;;;;5133229;27;20709;-65
2021/12/11 01:51:09;;;;;;;27.92;21.30;;;5.20;99.90;;;;;;5132075;27;20261;-65
2021/12/11 01:53:39;;;;;;;27.88;20.45;;;5.20;99.90;;;;;;5133267;27;20214;-65
2021/12/11 01:56:11;;;;;;;34.08;21.08;;;5.20;99.90;;;;;;5129761;27;20310;-65
2021/12/11 01:58:42;;;;;;;31.67;21.55;;;5.20;99.90;;;;;;5123870;27;20232;-65
2021/12/11 02:01:13;;;;;;;30.10;20.45;;;5.30;99.90;;;;;;5136102;27;20230;-65
2021/12/11 02:03:41;;;;;;;37.88;23.00;;;5.30;99.90;;;;;;5135207;27;20232;-65
2021/12/11 02:06:08;;;;;;;31.65;22.17;;;5.30;99.90;;;;;;5131862;27;20214;-65
2021/12/11 02:08:42;;;;;;;34.97;22.48;;;5.30;99.90;;;;;;5137402;27;20214;-65
2021/12/11 02:11:12;;;;;;;31.67;21.95;;;5.20;99.90;;;;;;5136275;27;20222;-65
2021/12/11 02:13:46;;;;;;;30.95;21.08;;;5.30;99.90;;;;;;5137255;27;20620;-65
2021/12/11 02:16:20;;;;;;;35.63;21.35;;;5.30;99.90;;;;;;5136814;27;20228;-64
2021/12/11 02:18:50;;;;;;;30.15;21.60;;;5.20;99.90;;;;;;5137242;27;20308;-65
2021/12/11 02:21:22;;;;;;;32.10;22.67;;;5.20;99.90;;;;;;5122895;27;20301;-65
2021/12/11 02:23:58;;;;;;;33.20;22.25;;;5.20;99.90;;;;;;5129227;27;20740;-65
2021/12/11 02:26:26;;;;;;;35.38;22.33;;;5.20;99.90;;;;;;5136808;27;21054;-65
2021/12/11 02:28:58;;;;;;;31.13;22.10;;;5.20;99.90;;;;;;5136934;27;20229;-64
2021/12/11 02:31:33;;;;;;;33.83;22.63;;;5.20;99.90;;;;;;5133391;27;20218;-65
2021/12/11 02:34:08;;;;;;;34.40;23.00;;;5.20;99.90;;;;;;5127455;27;20213;-64
2021/12/11 02:36:40;;;;;;;29.70;22.38;;;5.20;99.90;;;;;;5136548;27;20649;-65
2021/12/11 02:39:17;;;;;;;32.78;23.13;;;5.10;99.90;;;;;;5136863;27;20218;-65
2021/12/11 02:41:50;;;;;;;32.40;22.95;;;5.10;99.90;;;;;;5136018;27;20233;-65
2021/12/11 02:44:21;;;;;;;33.28;22.05;;;5.10;99.90;;;;;;5136731;27;20221;-65
2021/12/11 02:46:56;;;;;;;35.50;24.98;;;5.00;99.90;;;;;;5136443;27;20810;-65
2021/12/11 02:49:30;;;;;;;41.75;26.00;;;5.10;99.90;;;;;;5136489;27;20221;-65
2021/12/11 02:52:00;;;;;;;32.42;23.75;;;5.10;99.90;;;;;;5135964;27;20953;-65
2021/12/11 02:54:37;;;;;;;40.22;26.17;;;5.10;99.90;;;;;;5135999;27;20241;-65
2021/12/11 02:57:10;;;;;;;36.50;25.77;;;5.10;99.90;;;;;;5136230;27;21047;-65
2021/12/11 02:59:42;;;;;;;48.70;29.65;;;5.10;99.90;;;;;;5135880;27;20564;-65
2021/12/11 03:02:15;;;;;;;38.55;26.73;;;5.20;99.90;;;;;;5136062;27;20998;-65
2021/12/11 03:04:48;;;;;;;43.33;27.90;;;5.20;99.90;;;;;;5127009;27;20236;-65
2021/12/11 03:07:17;;;;;;;38.17;26.85;;;5.20;99.90;;;;;;5134171;27;20332;-64
2021/12/11 03:09:50;;;;;;;35.05;25.75;;;5.10;99.90;;;;;;5136119;27;20252;-65
2021/12/11 03:12:19;;;;;;;43.85;27.55;;;5.10;99.90;;;;;;5135573;27;20945;-64
2021/12/11 03:14:47;;;;;;;42.60;27.27;;;5.10;99.90;;;;;;5135997;27;20228;-65
2021/12/11 03:17:16;;;;;;;39.67;25.10;;;5.10;99.90;;;;;;5135579;27;20229;-65
2021/12/11 03:19:45;;;;;;;39.85;26.00;;;5.10;99.90;;;;;;5135775;27;20230;-65
2021/12/11 03:22:19;;;;;;;39.40;26.50;;;5.10;99.90;;;;;;5135160;27;20605;-65
2021/12/11 03:24:49;;;;;;;47.40;30.08;;;5.10;99.90;;;;;;5131574;27;20217;-64
2021/12/11 03:27:16;;;;;;;42.35;28.27;;;5.00;99.90;;;;;;5135365;27;20232;-65
2021/12/11 03:29:44;;;;;;;46.28;27.45;;;5.00;99.90;;;;;;5135604;27;20226;-65
2021/12/11 03:32:12;;;;;;;39.47;27.45;;;5.10;99.90;;;;;;5135034;27;20230;-64
2021/12/11 03:34:44;;;;;;;47.75;30.60;;;5.10;99.90;;;;;;5135569;27;20222;-65
2021/12/11 03:37:13;;;;;;;49.03;28.10;;;5.10;99.90;;;;;;5135037;27;20332;-65
2021/12/11 03:39:42;;;;;;;52.72;30.77;;;5.10;99.90;;;;;;5135380;27;20306;-65
2021/12/11 03:42:16;;;;;;;41.70;29.63;;;5.10;99.90;;;;;;5126868;27;20229;-65
2021/12/11 03:44:44;;;;;;;42.25;29.13;;;5.10;99.90;;;;;;5130152;27;20236;-64
2021/12/11 03:47:14;;;;;;;41.53;25.88;;;5.10;99.90;;;;;;5135132;27;20236;-65
2021/12/11 03:49:41;;;;;;;39.60;27.38;;;5.10;99.90;;;;;;5135377;27;20252;-65
2021/12/11 03:52:11;;;;;;;39.80;26.52;;;5.10;99.90;;;;;;5134761;27;20683;-65
2021/12/11 03:54:41;;;;;;;41.88;25.35;;;5.20;99.90;;;;;;5135251;27;20226;-65
2021/12/11 03:57:15;;;;;;;44.45;26.30;;;5.10;99.90;;;;;;5134691;27;20222;-65
2021/12/11 03:59:47;;;;;;;41.75;26.05;;;5.10;99.90;;;;;;5134983;27;20732;-65
2021/12/11 04:02:15;;;;;;;43.92;26.30;;;5.10;99.90;;;;;;5134692;27;20222;-65
2021/12/11 04:04:50;;;;;;;40.58;26.75;;;5.10;99.90;;;;;;5134737;27;20282;-65
2021/12/11 04:07:20;;;;;;;38.08;24.63;;;5.00;99.90;;;;;;5133927;27;20222;-65
2021/12/11 04:09:47;;;;;;;32.00;21.27;;;5.00;99.90;;;;;;5135048;27;20226;-65
2021/12/11 04:12:18;;;;;;;35.17;23.15;;;5.00;99.90;;;;;;5133960;27;20233;-65
2021/12/11 04:14:47;;;;;;;34.08;21.15;;;5.00;99.90;;;;;;5134975;27;20248;-65
2021/12/11 04:17:18;;;;;;;34.83;22.40;;;5.00;99.90;;;;;;5133929;27;20222;-65
2021/12/11 04:19:47;;;;;;;36.10;23.33;;;4.90;99.90;;;;;;5134841;27;20230;-65
2021/12/11 04:22:14;;;;;;;36.35;23.92;;;4.90;99.90;;;;;;5133930;27;20222;-65
2021/12/11 04:24:44;;;;;;;40.00;21.98;;;4.90;99.90;;;;;;5129715;27;20280;-65
2021/12/11 04:27:14;;;;;;;37.40;23.08;;;4.90;99.90;;;;;;5133813;27;20244;-65
2021/12/11 04:29:43;;;;;;;41.83;24.92;;;4.90;99.90;;;;;;5134419;27;20226;-65
2021/12/11 04:32:11;;;;;;;37.30;23.00;;;4.90;99.90;;;;;;5134005;27;20232;-65
2021/12/11 04:34:38;;;;;;;34.58;21.80;;;4.80;99.90;;;;;;5134127;27;20222;-65
2021/12/11 04:37:13;;;;;;;36.00;22.77;;;4.80;99.90;;;;;;5133980;27;20236;-65
2021/12/11 04:39:43;;;;;;;36.65;24.52;;;4.80;99.90;;;;;;5134374;27;20334;-65
2021/12/11 04:42:19;;;;;;;41.40;21.58;;;4.80;99.90;;;;;;5141540;27;20345;-65
2021/12/11 04:44:48;;;;;;;38.03;24.60;;;4.80;99.90;;;;;;5129321;27;20224;-65
2021/12/11 04:47:31;;;;;;;44.83;25.63;;;4.80;99.90;;;;;;5133145;27;20672;-65
2021/12/11 04:50:04;;;;;;;42.92;24.42;;;4.70;99.90;;;;;;5134021;27;20230;-65
2021/12/11 04:52:42;;;;;;;44.80;23.88;;;4.80;99.90;;;;;;5133736;27;20235;-65
2021/12/11 04:55:25;;;;;;;46.33;25.58;;;4.80;99.90;;;;;;5121148;27;20221;-65
2021/12/11 04:58:09;;;;;;;39.53;22.95;;;4.70;99.90;;;;;;5130694;27;20305;-65
2021/12/11 05:00:52;;;;;;;39.75;24.25;;;4.80;99.90;;;;;;5133529;27;20301;-65
2021/12/11 05:03:51;;;;;;;44.17;24.10;;;4.80;99.90;;;;;;5121312;27;20286;-65
2021/12/11 05:06:37;;;;;;;40.05;21.38;;;4.80;99.90;;;;;;5132534;27;20297;-64
2021/12/11 05:09:23;;;;;;;33.95;21.77;;;4.80;99.90;;;;;;5133784;27;20270;-65
2021/12/11 05:12:06;;;;;;;36.45;20.92;;;4.70;99.90;;;;;;5134295;27;20218;-65
2021/12/11 05:14:33;;;;;;;37.47;22.20;;;4.80;99.90;;;;;;5120834;27;20226;-65
2021/12/11 05:17:01;;;;;;;35.65;21.73;;;4.70;99.90;;;;;;5133536;27;20239;-65
2021/12/11 05:19:28;;;;;;;42.25;22.55;;;4.70;99.90;;;;;;5133736;27;20248;-65
2021/12/11 05:21:55;;;;;;;40.80;24.20;;;4.60;99.90;;;;;;5133088;27;20225;-65
2021/12/11 05:24:22;;;;;;;37.05;22.90;;;4.60;99.90;;;;;;5128307;27;20228;-65
2021/12/11 05:26:50;;;;;;;34.83;21.83;;;4.60;99.90;;;;;;5133310;27;20218;-65
2021/12/11 05:29:17;;;;;;;40.50;24.95;;;4.60;99.90;;;;;;5132894;27;20236;-65
2021/12/11 05:31:45;;;;;;;41.78;24.15;;;4.50;99.90;;;;;;5133023;27;20562;-65
2021/12/11 05:34:13;;;;;;;38.83;24.48;;;4.50;99.90;;;;;;5133670;27;20740;-65
2021/12/11 05:36:40;;;;;;;34.30;21.67;;;4.50;99.90;;;;;;5133099;27;20984;-65
2021/12/11 05:39:11;;;;;;;36.47;21.45;;;4.50;99.90;;;;;;5133392;27;20218;-65
2021/12/11 05:41:39;;;;;;;40.53;24.40;;;4.50;99.90;;;;;;5132739;27;20226;-65
2021/12/11 05:44:07;;;;;;;39.22;23.90;;;4.50;99.90;;;;;;5132984;27;20222;-65
2021/12/11 05:46:35;;;;;;;38.05;22.73;;;4.50;99.90;;;;;;5131897;27;20718;-65
2021/12/11 05:49:04;;;;;;;39.45;21.15;;;4.60;99.90;;;;;;5133415;27;21285;-65
2021/12/11 05:51:38;;;;;;;34.20;19.67;;;4.50;99.90;;;;;;5132792;27;20233;-65
2021/12/11 05:54:06;;;;;;;42.15;23.90;;;4.60;99.90;;;;;;5133204;27;20220;-65
2021/12/11 05:56:36;;;;;;;39.20;22.27;;;4.60;99.90;;;;;;5132801;27;20313;-65
2021/12/11 05:59:05;;;;;;;40.05;22.42;;;4.60;99.90;;;;;;5132899;27;20267;-65
2021/12/11 06:01:38;;;;;;;43.53;22.77;;;4.60;99.90;;;;;;5133362;27;20317;-65
2021/12/11 06:04:10;;;;;;;33.60;21.38;;;4.70;99.90;;;;;;5132709;27;20218;-65
2021/12/11 06:06:40;;;;;;;35.50;21.40;;;4.70;99.90;;;;;;5133057;27;20320;-65
2021/12/11 06:09:09;;;;;;;33.17;19.70;;;4.70;99.90;;;;;;5132654;27;20210;-65
2021/12/11 06:11:37;;;;;;;38.13;22.27;;;4.70;99.90;;;;;;5133268;27;20240;-65
2021/12/11 06:14:05;;;;;;;36.50;22.35;;;4.70;99.90;;;;;;5132751;27;20228;-65
2021/12/11 06:16:33;;;;;;;36.22;22.95;;;4.70;99.90;;;;;;5133153;27;20226;-64
2021/12/11 06:19:05;;;;;;;40.88;22.60;;;4.80;99.90;;;;;;5132389;27;20228;-65
2021/12/11 06:21:33;;;;;;;32.97;21.05;;;4.80;99.90;;;;;;5133130;27;20222;-64
2021/12/11 06:24:02;;;;;;;34.83;19.90;;;4.80;99.90;;;;;;5132639;27;20232;-65
2021/12/11 06:26:29;;;;;;;33.83;21.00;;;4.80;99.90;;;;;;5132948;27;20588;-64
2021/12/11 06:28:58;;;;;;;36.35;22.45;;;4.80;99.90;;;;;;5132316;27;20228;-65
2021/12/11 06:31:25;;;;;;;39.50;20.92;;;4.80;99.90;;;;;;5133059;27;20228;-65
2021/12/11 06:33:53;;;;;;;38.58;23.55;;;4.80;99.90;;;;;;5132398;27;20228;-65
2021/12/11 06:36:22;;;;;;;32.83;20.45;;;4.80;99.90;;;;;;5133213;27;20692;-65
2021/12/11 06:38:52;;;;;;;37.40;21.92;;;4.80;99.90;;;;;;5132512;27;20218;-64
2021/12/11 06:41:23;;;;;;;42.90;22.48;;;4.80;99.90;;;;;;5134634;27;20237;-65
2021/12/11 06:43:50;;;;;;;37.45;22.77;;;4.80;99.90;;;;;;5136248;27;20680;-65
2021/12/11 06:46:18;;;;;;;36.83;21.73;;;4.80;99.90;;;;;;5136866;27;20228;-64
2021/12/11 06:48:45;;;;;;;30.67;22.02;;;4.80;99.90;;;;;;5122812;27;20313;-65
2021/12/11 06:51:14;;;;;;;42.53;24.00;;;4.90;99.90;;;;;;5136158;27;20214;-65
2021/12/11 06:53:43;;;;;;;40.58;22.08;;;4.90;99.90;;;;;;5123344;27;20232;-64
2021/12/11 06:56:13;;;;;;;34.88;20.65;;;4.90;99.90;;;;;;5135810;27;20229;-65
2021/12/11 06:58:41;;;;;;;35.75;21.17;;;4.90;99.90;;;;;;5135879;27;20242;-65
2021/12/11 07:01:10;;;;;;;31.92;19.33;;;4.90;99.90;;;;;;5135756;27;20234;-65
2021/12/11 07:03:39;;;;;;;40.35;20.83;;;4.90;99.90;;;;;;5136049;27;20232;-65
2021/12/11 07:06:08;;;;;;;34.42;22.13;;;5.00;99.90;;;;;;5135693;27;20600;-65
2021/12/11 07:08:39;;;;;;;35.65;21.38;;;5.00;99.90;;;;;;5136016;27;20229;-65
2021/12/11 07:11:07;;;;;;;31.85;19.45;;;5.00;99.90;;;;;;5135667;27;20233;-64
2021/12/11 07:13:34;;;;;;;28.63;18.58;;;5.00;99.90;;;;;;5135918;27;20226;-64
2021/12/11 07:16:04;;;;;;;32.67;21.85;;;5.10;99.90;;;;;;5135486;27;20209;-65
2021/12/11 07:18:31;;;;;;;33.15;21.15;;;5.10;99.90;;;;;;5136049;27;20586;-65
2021/12/11 07:20:59;;;;;;;34.40;20.52;;;5.20;99.90;;;;;;5135191;27;20221;-65
2021/12/11 07:23:26;;;;;;;38.85;23.02;;;5.20;99.90;;;;;;5135964;27;20236;-65
2021/12/11 07:25:57;;;;;;;37.72;22.05;;;5.20;99.90;;;;;;5135242;27;20218;-64
2021/12/11 07:28:25;;;;;;;32.47;21.63;;;5.20;99.90;;;;;;5134619;27;20218;-65
2021/12/11 07:30:55;;;;;;;35.10;24.52;;;5.20;99.90;;;;;;5134723;27;20260;-65
2021/12/11 07:33:24;;;;;;;37.05;23.30;;;5.30;99.90;;;;;;5135781;27;20307;-65
2021/12/11 07:35:53;;;;;;;36.88;23.73;;;5.30;99.90;;;;;;5134966;27;20564;-65
2021/12/11 07:38:21;;;;;;;38.65;22.50;;;5.30;99.90;;;;;;5135848;27;20218;-65
2021/12/11 07:40:52;;;;;;;40.95;23.52;;;5.30;99.90;;;;;;5135625;27;20226;-65
2021/12/11 07:43:21;;;;;;;37.72;22.58;;;5.40;99.90;;;;;;5135377;27;20267;-65
2021/12/11 07:45:48;;;;;;;37.80;22.48;;;5.40;99.90;;;;;;5134635;27;20228;-65
2021/12/11 07:48:15;;;;;;;38.20;23.10;;;5.30;99.90;;;;;;5134933;27;20239;-64
2021/12/11 07:50:44;;;;;;;40.80;25.15;;;5.40;99.90;;;;;;5135379;27;20232;-65
2021/12/11 07:53:12;;;;;;;38.10;23.67;;;5.30;99.90;;;;;;5093337;28;20687;-65
2021/12/11 07:55:39;;;;;;;34.80;24.60;;;5.30;99.90;;;;;;5094273;28;20238;-65
2021/12/11 07:58:07;;;;;;;39.85;24.33;;;5.30;99.90;;;;;;5093759;28;20223;-65
2021/12/11 08:00:38;;;;;;;40.50;24.92;;;5.30;99.90;;;;;;5094213;28;20227;-65
2021/12/11 08:03:06;;;;;;;39.25;24.73;;;5.20;99.90;;;;;;5093682;28;20233;-65
2021/12/11 08:05:33;;;;;;;43.47;25.33;;;5.20;99.90;;;;;;5094041;28;20234;-65
2021/12/11 08:08:05;;;;;;;37.65;22.63;;;5.20;99.90;;;;;;5093813;28;20223;-65
2021/12/11 08:10:34;;;;;;;39.85;23.77;;;5.20;99.90;;;;;;5094190;28;20599;-65
2021/12/11 08:13:03;;;;;;;36.22;23.33;;;5.20;99.90;;;;;;5093559;28;20703;-65
2021/12/11 08:15:30;;;;;;;46.63;23.90;;;5.20;99.90;;;;;;5094105;28;20234;-65
2021/12/11 08:17:57;;;;;;;35.05;23.23;;;5.30;99.90;;;;;;5093846;28;20256;-65
2021/12/11 08:20:26;;;;;;;41.15;24.27;;;5.30;99.90;;;;;;5093668;28;20561;-65
2021/12/11 08:22:54;;;;;;;40.35;23.60;;;5.20;99.90;;;;;;5093708;28;20238;-65
2021/12/11 08:25:26;;;;;;;47.13;23.90;;;5.20;99.90;;;;;;5093573;28;20219;-65
2021/12/11 08:27:54;;;;;;;47.55;24.42;;;5.10;99.90;;;;;;5093938;28;20276;-65
2021/12/11 08:30:22;;;;;;;38.05;22.90;;;5.10;99.90;;;;;;5093141;28;20310;-65
2021/12/11 08:32:49;;;;;;;37.03;22.48;;;5.10;99.90;;;;;;5093785;28;20230;-65
2021/12/11 08:35:17;;;;;;;34.58;21.48;;;5.00;99.90;;;;;;5092935;28;20314;-65
2021/12/11 08:37:47;;;;;;;40.45;21.92;;;5.00;99.90;;;;;;5093572;28;20768;-64
2021/12/11 08:40:19;;;;;;;39.30;20.88;;;4.90;99.90;;;;;;5093327;28;20245;-64
2021/12/11 08:42:47;;;;;;;40.47;25.10;;;4.90;99.90;;;;;;5093505;28;20296;-64
2021/12/11 08:45:22;;;;;;;37.47;22.05;;;4.90;99.90;;;;;;5092987;28;20234;-65
2021/12/11 08:47:52;;;;;;;35.42;20.67;;;4.90;99.90;;;;;;5093500;28;20229;-65
2021/12/11 08:50:22;;;;;;;39.45;21.50;;;4.90;99.90;;;;;;5093081;28;20404;-64
2021/12/11 08:52:52;;;;;;;34.70;21.17;;;4.90;99.90;;;;;;5128776;27;20226;-64
2021/12/11 08:55:22;;;;;;;38.47;22.42;;;4.90;99.90;;;;;;5133811;27;20228;-64
2021/12/11 08:57:51;;;;;;;33.42;21.35;;;4.90;99.90;;;;;;5134446;27;20226;-64
2021/12/11 09:00:23;;;;;;;29.77;19.80;;;4.90;99.90;;;;;;5133595;27;20684;-64
2021/12/11 09:02:55;;;;;;;39.47;22.00;;;4.80;99.90;;;;;;5134132;27;20225;-64
2021/12/11 09:05:28;;;;;;;32.08;19.30;;;4.80;99.90;;;;;;5133780;27;20782;-65
2021/12/11 09:08:03;;;;;;;29.95;19.02;;;4.80;99.90;;;;;;5134219;27;20222;-65
2021/12/11 09:10:35;;;;;;;28.60;17.77;;;4.80;99.90;;;;;;5133805;27;21592;-64
2021/12/11 09:13:08;;;;;;;28.40;19.23;;;4.80;99.90;;;;;;5133915;27;20226;-64
2021/12/11 09:15:42;;;;;;;26.42;16.27;;;4.80;99.90;;;;;;5133881;27;20244;-65
2021/12/11 09:18:13;;;;;;;25.63;15.32;;;4.80;99.90;;;;;;5134131;27;20228;-64
2021/12/11 09:20:43;;;;;;;27.83;16.83;;;4.70;99.90;;;;;;5133561;27;20651;-65
2021/12/11 09:23:16;;;;;;;25.88;16.42;;;4.80;99.90;;;;;;5133701;27;20248;-64
2021/12/11 09:25:47;;;;;;;23.60;15.00;;;4.80;99.90;;;;;;5133848;27;20983;-65
2021/12/11 09:28:20;;;;;;;24.90;16.45;;;4.80;99.90;;;;;;5133680;27;20218;-64
2021/12/11 09:30:52;;;;;;;25.63;17.13;;;4.80;99.90;;;;;;5133561;27;20571;-65
2021/12/11 09:33:22;;;;;;;25.35;14.95;;;4.80;99.90;;;;;;5133725;27;20228;-65
2021/12/11 09:35:54;;;;;;;19.75;14.60;;;4.80;99.90;;;;;;5133553;27;20213;-65
2021/12/11 09:38:23;;;;;;;24.33;16.52;;;4.80;99.90;;;;;;5133718;27;20214;-64
2021/12/11 09:40:54;;;;;;;28.02;17.63;;;4.80;99.90;;;;;;5133225;27;21230;-64
2021/12/11 09:43:37;;;;;;;21.50;15.10;;;4.70;99.90;;;;;;5133532;27;20225;-65
2021/12/11 09:46:06;;;;;;;25.17;16.52;;;4.70;99.90;;;;;;5134076;27;20232;-64
2021/12/11 09:48:33;;;;;;;23.77;17.08;;;4.60;99.90;;;;;;5133409;27;20931;-65
2021/12/11 09:51:08;;;;;;;30.60;20.48;;;4.60;99.90;;;;;;5133228;27;20676;-65
2021/12/11 09:53:37;;;;;;;28.23;21.15;;;4.60;99.90;;;;;;5133483;27;20647;-65
2021/12/11 09:56:07;;;;;;;20.38;17.15;;;4.50;99.90;;;;;;5133613;27;20554;-65
2021/12/11 09:58:38;;;;;;;29.45;17.88;;;4.50;99.90;;;;;;5133029;27;20222;-63
2021/12/11 10:01:09;;;;;;;23.50;15.05;;;4.50;99.90;;;;;;5133414;27;20224;-64
2021/12/11 10:03:40;;;;;;;25.30;17.63;;;4.50;99.90;;;;;;5133573;27;21074;-64
2021/12/11 10:06:14;;;;;;;27.77;17.55;;;4.70;99.90;;;;;;5133129;27;20214;-64
2021/12/11 10:08:57;;;;;;;25.75;17.55;;;4.60;99.90;;;;;;5133131;27;20218;-64
2021/12/11 10:11:28;;;;;;;23.45;15.05;;;4.60;99.90;;;;;;5132730;27;20699;-64
2021/12/11 10:14:01;;;;;;;21.27;15.18;;;4.70;99.90;;;;;;5133383;27;20225;-64
2021/12/11 10:16:32;;;;;;;18.65;14.02;;;4.70;99.90;;;;;;5135204;27;20671;-64
2021/12/11 10:19:00;;;;;;;22.77;14.90;;;4.70;99.90;;;;;;5137280;27;20214;-64
2021/12/11 10:21:33;;;;;;;21.50;14.52;;;4.70;99.90;;;;;;5136586;27;20214;-64
2021/12/11 10:24:04;;;;;;;28.98;17.30;;;4.80;99.90;;;;;;5137295;27;20591;-63
2021/12/11 10:26:32;;;;;;;25.88;16.73;;;4.80;99.90;;;;;;5136607;27;20572;-63
2021/12/11 10:29:04;;;;;;;22.67;15.48;;;4.80;99.90;;;;;;5137105;27;20271;-63
2021/12/11 10:31:35;;;;;;;25.10;16.00;;;4.80;99.90;;;;;;5136782;27;20228;-64
2021/12/11 10:34:05;;;;;;;21.27;14.25;;;4.80;99.90;;;;;;5137055;27;20217;-63
2021/12/11 10:36:36;;;;;;;21.92;16.40;;;4.90;99.90;;;;;;5136480;27;20301;-63
2021/12/11 10:39:06;;;;;;;19.48;15.55;;;4.90;99.90;;;;;;5136656;27;20214;-64
2021/12/11 10:41:34;;;;;;;24.83;14.40;;;4.90;99.90;;;;;;5136637;27;20312;-64
2021/12/11 10:44:06;;;;;;;24.48;14.65;;;5.00;99.90;;;;;;5136726;27;20563;-64
2021/12/11 10:46:36;;;;;;;21.17;13.98;;;4.90;99.90;;;;;;5136415;27;20226;-64
2021/12/11 10:49:08;;;;;;;21.73;14.73;;;5.00;99.90;;;;;;5136739;27;20232;-64
2021/12/11 10:51:40;;;;;;;19.10;14.23;;;5.00;99.90;;;;;;5136148;27;20229;-64
2021/12/11 10:54:07;;;;;;;23.77;16.13;;;5.00;99.90;;;;;;5136518;27;20228;-64
2021/12/11 10:56:34;;;;;;;24.80;17.30;;;5.10;99.90;;;;;;5136315;27;20241;-64
2021/12/11 10:59:10;;;;;;;18.58;14.82;;;5.10;99.90;;;;;;5136696;27;20531;-64
2021/12/11 11:01:40;;;;;;;19.83;15.63;;;5.10;99.90;;;;;;5136047;27;20562;-64
2021/12/11 11:04:11;;;;;;;23.95;16.70;;;5.10;99.90;;;;;;5136101;27;20218;-64
2021/12/11 11:06:38;;;;;;;19.15;14.32;;;5.00;99.90;;;;;;5136123;27;20585;-64
2021/12/11 11:09:06;;;;;;;22.05;17.25;;;5.00;99.90;;;;;;5136314;27;20228;-64
2021/12/11 11:11:34;;;;;;;27.35;19.17;;;5.00;99.90;;;;;;5135808;27;20230;-64
2021/12/11 11:14:04;;;;;;;27.55;20.15;;;4.90;99.90;;;;;;5136186;27;20218;-64
2021/12/11 11:16:33;;;;;;;27.20;17.23;;;4.90;99.90;;;;;;5135447;27;20251;-64
2021/12/11 11:19:01;;;;;;;28.77;16.30;;;4.90;99.90;;;;;;5136090;27;20218;-65
2021/12/11 11:21:31;;;;;;;21.92;15.23;;;5.00;99.90;;;;;;5135677;27;20214;-65
2021/12/11 11:23:59;;;;;;;25.95;18.33;;;5.00;99.90;;;;;;5135772;27;20222;-65
2021/12/11 11:26:28;;;;;;;28.63;18.40;;;5.00;99.90;;;;;;5135329;27;20218;-65
2021/12/11 11:28:56;;;;;;;24.42;17.88;;;5.00;99.90;;;;;;5135316;27;20555;-65
2021/12/11 11:31:28;;;;;;;27.67;19.50;;;5.00;99.90;;;;;;5135285;27;20226;-65
2021/12/11 11:33:55;;;;;;;25.60;17.25;;;5.00;99.90;;;;;;5135706;27;20232;-65
2021/12/11 11:36:26;;;;;;;24.55;16.73;;;5.00;99.90;;;;;;5135257;27;20218;-65
2021/12/11 11:38:57;;;;;;;23.80;16.80;;;5.00;99.90;;;;;;5135834;27;20292;-65
2021/12/11 11:41:27;;;;;;;24.42;17.35;;;5.00;99.90;;;;;;5135270;27;20572;-65
2021/12/11 11:43:55;;;;;;;25.08;18.20;;;5.00;99.90;;;;;;5135497;27;20222;-65
2021/12/11 11:46:24;;;;;;;24.05;17.85;;;5.00;99.90;;;;;;5135602;27;20221;-65
2021/12/11 11:48:55;;;;;;;24.15;15.35;;;5.00;99.90;;;;;;5135235;27;20224;-65
2021/12/11 11:51:31;;;;;;;24.50;17.52;;;5.00;99.90;;;;;;5135004;27;20660;-65
2021/12/11 11:53:58;;;;;;;22.45;17.30;;;5.00;99.90;;;;;;5135361;27;20629;-65
2021/12/11 11:56:29;;;;;;;23.42;16.58;;;5.00;99.90;;;;;;5135465;27;20221;-65
2021/12/11 11:58:56;;;;;;;27.27;17.27;;;5.00;99.90;;;;;;5134936;27;20543;-65
2021/12/11 12:01:28;;;;;;;26.98;17.10;;;5.10;99.90;;;;;;5135121;27;20236;-65
2021/12/11 12:03:57;;;;;;;30.17;18.20;;;5.00;99.90;;;;;;5134881;27;20225;-65
2021/12/11 12:06:31;;;;;;;26.85;18.20;;;5.10;99.90;;;;;;5135113;27;20668;-65
2021/12/11 12:08:59;;;;;;;24.48;17.17;;;5.10;99.90;;;;;;5134746;27;20255;-65
2021/12/11 12:11:31;;;;;;;23.63;15.25;;;5.10;99.90;;;;;;5135002;27;20225;-65
2021/12/11 12:13:58;;;;;;;23.73;14.77;;;5.10;99.90;;;;;;5134635;27;20302;-65
2021/12/11 12:16:26;;;;;;;21.80;16.25;;;5.00;99.90;;;;;;5134958;27;20220;-65
2021/12/11 12:18:53;;;;;;;21.85;14.27;;;5.00;99.90;;;;;;5134624;27;20244;-63
2021/12/11 12:21:22;;;;;;;21.08;14.48;;;5.00;99.90;;;;;;5134497;27;20232;-65
2021/12/11 12:23:49;;;;;;;22.20;15.68;;;4.90;99.90;;;;;;5134223;27;20686;-65
2021/12/11 12:26:19;;;;;;;21.38;14.93;;;4.90;99.90;;;;;;5134884;27;20214;-64
2021/12/11 12:28:48;;;;;;;22.85;16.70;;;4.80;99.90;;;;;;5134255;27;20224;-65
2021/12/11 12:31:17;;;;;;;23.77;16.83;;;4.80;99.90;;;;;;5134448;27;20226;-64
2021/12/11 12:33:45;;;;;;;18.38;14.27;;;4.90;99.90;;;;;;5134241;27;20228;-65
2021/12/11 12:36:12;;;;;;;22.58;15.55;;;4.90;99.90;;;;;;5134530;27;20214;-65
2021/12/11 12:38:43;;;;;;;20.83;14.80;;;4.90;99.90;;;;;;5133795;27;20218;-65
2021/12/11 12:41:16;;;;;;;25.23;18.55;;;5.00;99.90;;;;;;5134520;27;20687;-65
2021/12/11 12:44:16;;;;;;;22.50;15.63;;;5.00;99.90;;;;;;5134014;27;20252;-65
2021/12/11 12:46:47;;;;;;;23.67;17.27;;;5.00;99.90;;;;;;5133951;27;20226;-65
2021/12/11 12:49:15;;;;;;;21.77;16.95;;;5.00;99.90;;;;;;5134308;27;20228;-64
2021/12/11 12:51:44;;;;;;;21.15;17.35;;;5.00;99.90;;;;;;5133504;27;20240;-65